sensor_id;sensor_type;location;lat;lon;timestamp;temperature;humidity
736;DHT22;352;48.626;9.238;2023-05-16T00:01:48;13.30;99.90
736;DHT22;352;48.626;9.238;2023-05-16T00:04:15;13.30;99.90
736;DHT22;352;48.626;9.238;2023-05-16T00:06:42;13.20;99.90
736;DHT22;352;48.626;9.238;2023-05-16T00:09:11;13.20;99.90
736;DHT22;352;48.626;9.238;2023-05-16T00:11:37;13.10;99.90
736;DHT22;352;48.626;9.238;2023-05-16T00:14:04;13.10;99.90
736;DHT22;352;48.626;9.238;2023-05-16T00:16:32;13.00;99.90
736;DHT22;352;48.626;9.238;2023-05-16T00:19:01;13.00;99.90
736;DHT22;352;48.626;9.238;2023-05-16T00:21:28;12.90;99.90
736;DHT22;352;48.626;9.238;2023-05-16T00:23:55;12.90;99.90
736;DHT22;352;48.626;9.238;2023-05-16T00:26:23;12.90;99.90
736;DHT22;352;48.626;9.238;2023-05-16T00:28:50;12.80;99.90
736;DHT22;352;48.626;9.238;2023-05-16T00:31:17;12.80;99.90
736;DHT22;352;48.626;9.238;2023-05-16T00:33:44;12.80;99.90
736;DHT22;352;48.626;9.238;2023-05-16T00:36:10;12.90;99.90
736;DHT22;352;48.626;9.238;2023-05-16T00:38:37;12.80;99.90
736;DHT22;352;48.626;9.238;2023-05-16T00:41:04;12.70;99.90
736;DHT22;352;48.626;9.238;2023-05-16T00:43:32;12.80;99.90
736;DHT22;352;48.626;9.238;2023-05-16T00:45:58;12.70;99.90
736;DHT22;352;48.626;9.238;2023-05-16T00:48:26;12.70;99.90
736;DHT22;352;48.626;9.238;2023-05-16T00:50:53;12.70;99.90
736;DHT22;352;48.626;9.238;2023-05-16T00:53:20;12.70;99.90
736;DHT22;352;48.626;9.238;2023-05-16T00:55:46;12.70;99.90
736;DHT22;352;48.626;9.238;2023-05-16T00:58:14;12.70;99.90
736;DHT22;352;48.626;9.238;2023-05-16T01:00:43;12.70;99.90
736;DHT22;352;48.626;9.238;2023-05-16T01:03:11;12.80;99.90
736;DHT22;352;48.626;9.238;2023-05-16T01:05:39;12.80;99.90
736;DHT22;352;48.626;9.238;2023-05-16T01:08:06;12.80;99.90
736;DHT22;352;48.626;9.238;2023-05-16T01:10:38;12.80;99.90
736;DHT22;352;48.626;9.238;2023-05-16T01:13:11;12.80;99.90
736;DHT22;352;48.626;9.238;2023-05-16T01:15:45;12.80;99.90
736;DHT22;352;48.626;9.238;2023-05-16T01:18:20;12.90;99.90
736;DHT22;352;48.626;9.238;2023-05-16T01:20:53;12.90;99.90
736;DHT22;352;48.626;9.238;2023-05-16T01:23:39;12.90;99.90
736;DHT22;352;48.626;9.238;2023-05-16T01:26:18;12.90;99.90
736;DHT22;352;48.626;9.238;2023-05-16T01:28:45;12.70;99.90
736;DHT22;352;48.626;9.238;2023-05-16T01:31:13;12.80;99.90
736;DHT22;352;48.626;9.238;2023-05-16T01:33:40;12.80;99.90
736;DHT22;352;48.626;9.238;2023-05-16T01:36:12;12.90;99.90
736;DHT22;352;48.626;9.238;2023-05-16T01:38:43;12.90;99.90
736;DHT22;352;48.626;9.238;2023-05-16T01:41:18;12.90;99.90
736;DHT22;352;48.626;9.238;2023-05-16T01:43:49;12.90;99.90
736;DHT22;352;48.626;9.238;2023-05-16T01:46:20;12.90;99.90
736;DHT22;352;48.626;9.238;2023-05-16T01:48:52;12.90;99.90
736;DHT22;352;48.626;9.238;2023-05-16T01:51:21;12.90;99.90
736;DHT22;352;48.626;9.238;2023-05-16T01:53:51;12.90;99.90
736;DHT22;352;48.626;9.238;2023-05-16T01:56:20;12.90;99.90
736;DHT22;352;48.626;9.238;2023-05-16T01:58:47;12.90;99.90
736;DHT22;352;48.626;9.238;2023-05-16T02:01:15;12.90;99.90
736;DHT22;352;48.626;9.238;2023-05-16T02:03:42;12.90;99.90
736;DHT22;352;48.626;9.238;2023-05-16T02:06:08;12.90;99.90
736;DHT22;352;48.626;9.238;2023-05-16T02:08:35;12.90;99.90
736;DHT22;352;48.626;9.238;2023-05-16T02:11:02;12.90;99.90
736;DHT22;352;48.626;9.238;2023-05-16T02:13:30;12.80;99.90
736;DHT22;352;48.626;9.238;2023-05-16T02:15:56;12.80;99.90
736;DHT22;352;48.626;9.238;2023-05-16T02:18:23;12.90;99.90
736;DHT22;352;48.626;9.238;2023-05-16T02:20:50;12.80;99.90
736;DHT22;352;48.626;9.238;2023-05-16T02:23:17;12.80;99.90
736;DHT22;352;48.626;9.238;2023-05-16T02:25:44;12.80;99.90
736;DHT22;352;48.626;9.238;2023-05-16T02:28:11;12.80;99.90
736;DHT22;352;48.626;9.238;2023-05-16T02:30:39;12.80;99.90
736;DHT22;352;48.626;9.238;2023-05-16T02:33:06;12.90;99.90
736;DHT22;352;48.626;9.238;2023-05-16T02:35:33;12.80;99.90
736;DHT22;352;48.626;9.238;2023-05-16T02:37:59;12.80;99.90
736;DHT22;352;48.626;9.238;2023-05-16T02:40:26;12.80;99.90
736;DHT22;352;48.626;9.238;2023-05-16T02:42:53;12.80;99.90
736;DHT22;352;48.626;9.238;2023-05-16T02:45:19;12.80;99.90
736;DHT22;352;48.626;9.238;2023-05-16T02:47:47;12.90;99.90
736;DHT22;352;48.626;9.238;2023-05-16T02:50:14;12.90;99.90
736;DHT22;352;48.626;9.238;2023-05-16T02:52:41;12.90;99.90
736;DHT22;352;48.626;9.238;2023-05-16T02:55:08;12.90;99.90
736;DHT22;352;48.626;9.238;2023-05-16T02:57:35;12.90;99.90
736;DHT22;352;48.626;9.238;2023-05-16T03:00:02;13.00;99.90
736;DHT22;352;48.626;9.238;2023-05-16T03:02:30;13.00;99.90
736;DHT22;352;48.626;9.238;2023-05-16T03:04:58;13.00;99.90
736;DHT22;352;48.626;9.238;2023-05-16T03:07:25;13.00;99.90
736;DHT22;352;48.626;9.238;2023-05-16T03:09:52;13.00;99.90
736;DHT22;352;48.626;9.238;2023-05-16T03:12:19;13.00;99.90
736;DHT22;352;48.626;9.238;2023-05-16T03:14:45;13.00;99.90
736;DHT22;352;48.626;9.238;2023-05-16T03:17:12;13.00;99.90
736;DHT22;352;48.626;9.238;2023-05-16T03:19:39;13.00;99.90
736;DHT22;352;48.626;9.238;2023-05-16T03:22:07;13.00;99.90
736;DHT22;352;48.626;9.238;2023-05-16T03:24:33;13.00;99.90
736;DHT22;352;48.626;9.238;2023-05-16T03:27:00;13.00;99.90
736;DHT22;352;48.626;9.238;2023-05-16T03:29:28;13.00;99.90
736;DHT22;352;48.626;9.238;2023-05-16T03:31:55;13.00;99.90
736;DHT22;352;48.626;9.238;2023-05-16T03:34:21;13.00;99.90
736;DHT22;352;48.626;9.238;2023-05-16T03:36:49;13.00;99.90
736;DHT22;352;48.626;9.238;2023-05-16T03:39:17;13.00;99.90
736;DHT22;352;48.626;9.238;2023-05-16T03:41:44;13.00;99.90
736;DHT22;352;48.626;9.238;2023-05-16T03:44:11;13.00;99.90
736;DHT22;352;48.626;9.238;2023-05-16T03:46:37;13.00;99.90
736;DHT22;352;48.626;9.238;2023-05-16T03:49:04;12.90;99.90
736;DHT22;352;48.626;9.238;2023-05-16T03:51:31;12.90;99.90
736;DHT22;352;48.626;9.238;2023-05-16T03:53:58;12.90;99.90
736;DHT22;352;48.626;9.238;2023-05-16T03:56:26;13.00;99.90
736;DHT22;352;48.626;9.238;2023-05-16T03:58:53;12.90;99.90
736;DHT22;352;48.626;9.238;2023-05-16T04:01:20;12.90;99.90
736;DHT22;352;48.626;9.238;2023-05-16T04:03:47;12.90;99.90
736;DHT22;352;48.626;9.238;2023-05-16T04:06:15;12.90;99.90
736;DHT22;352;48.626;9.238;2023-05-16T04:08:41;12.90;99.90
736;DHT22;352;48.626;9.238;2023-05-16T04:11:09;12.90;99.90
736;DHT22;352;48.626;9.238;2023-05-16T04:13:37;12.90;99.90
736;DHT22;352;48.626;9.238;2023-05-16T04:16:04;12.90;99.90
736;DHT22;352;48.626;9.238;2023-05-16T04:18:31;12.90;99.90
736;DHT22;352;48.626;9.238;2023-05-16T04:20:58;12.90;99.90
736;DHT22;352;48.626;9.238;2023-05-16T04:23:25;12.90;99.90
736;DHT22;352;48.626;9.238;2023-05-16T04:25:51;12.90;99.90
736;DHT22;352;48.626;9.238;2023-05-16T04:28:18;12.90;99.90
736;DHT22;352;48.626;9.238;2023-05-16T04:30:46;12.90;99.90
736;DHT22;352;48.626;9.238;2023-05-16T04:33:13;12.90;99.90
736;DHT22;352;48.626;9.238;2023-05-16T04:35:41;13.00;99.90
736;DHT22;352;48.626;9.238;2023-05-16T04:38:07;13.00;99.90
736;DHT22;352;48.626;9.238;2023-05-16T04:40:34;13.00;99.90
736;DHT22;352;48.626;9.238;2023-05-16T04:43:01;13.00;99.90
736;DHT22;352;48.626;9.238;2023-05-16T04:45:27;13.00;99.90
736;DHT22;352;48.626;9.238;2023-05-16T04:47:56;13.10;99.90
736;DHT22;352;48.626;9.238;2023-05-16T04:50:22;13.00;99.90
736;DHT22;352;48.626;9.238;2023-05-16T04:52:49;13.10;99.90
736;DHT22;352;48.626;9.238;2023-05-16T04:55:16;13.10;99.90
736;DHT22;352;48.626;9.238;2023-05-16T04:57:43;13.10;99.90
736;DHT22;352;48.626;9.238;2023-05-16T05:00:11;13.10;99.90
736;DHT22;352;48.626;9.238;2023-05-16T05:02:38;13.20;99.90
736;DHT22;352;48.626;9.238;2023-05-16T05:05:07;13.20;99.90
736;DHT22;352;48.626;9.238;2023-05-16T05:07:34;13.20;99.90
736;DHT22;352;48.626;9.238;2023-05-16T05:10:01;13.20;99.90
736;DHT22;352;48.626;9.238;2023-05-16T05:12:28;13.20;99.90
736;DHT22;352;48.626;9.238;2023-05-16T05:14:55;13.30;99.90
736;DHT22;352;48.626;9.238;2023-05-16T05:17:21;13.30;99.90
736;DHT22;352;48.626;9.238;2023-05-16T05:19:48;13.40;99.90
736;DHT22;352;48.626;9.238;2023-05-16T05:22:16;13.40;99.90
736;DHT22;352;48.626;9.238;2023-05-16T05:24:43;13.50;99.90
736;DHT22;352;48.626;9.238;2023-05-16T05:27:10;13.50;99.90
736;DHT22;352;48.626;9.238;2023-05-16T05:29:36;13.60;99.90
736;DHT22;352;48.626;9.238;2023-05-16T05:32:03;13.60;99.90
736;DHT22;352;48.626;9.238;2023-05-16T05:34:30;13.60;99.90
736;DHT22;352;48.626;9.238;2023-05-16T05:36:57;13.60;99.90
736;DHT22;352;48.626;9.238;2023-05-16T05:39:25;13.60;99.90
736;DHT22;352;48.626;9.238;2023-05-16T05:41:52;13.60;99.90
736;DHT22;352;48.626;9.238;2023-05-16T05:44:19;13.60;99.90
736;DHT22;352;48.626;9.238;2023-05-16T05:46:46;13.50;99.90
736;DHT22;352;48.626;9.238;2023-05-16T05:49:12;13.40;99.90
736;DHT22;352;48.626;9.238;2023-05-16T05:51:39;13.40;99.90
736;DHT22;352;48.626;9.238;2023-05-16T05:54:06;13.30;99.90
736;DHT22;352;48.626;9.238;2023-05-16T05:56:34;13.20;99.90
736;DHT22;352;48.626;9.238;2023-05-16T05:59:01;13.20;99.90
736;DHT22;352;48.626;9.238;2023-05-16T06:01:28;13.20;99.90
736;DHT22;352;48.626;9.238;2023-05-16T06:03:54;13.20;99.90
736;DHT22;352;48.626;9.238;2023-05-16T06:06:22;13.10;99.90
736;DHT22;352;48.626;9.238;2023-05-16T06:08:48;13.40;99.90
736;DHT22;352;48.626;9.238;2023-05-16T06:11:15;13.20;99.90
736;DHT22;352;48.626;9.238;2023-05-16T06:13:43;13.10;99.90
736;DHT22;352;48.626;9.238;2023-05-16T06:16:10;13.10;99.90
736;DHT22;352;48.626;9.238;2023-05-16T06:18:36;13.20;99.90
736;DHT22;352;48.626;9.238;2023-05-16T06:21:04;13.10;99.90
736;DHT22;352;48.626;9.238;2023-05-16T06:23:31;13.10;99.90
736;DHT22;352;48.626;9.238;2023-05-16T06:25:58;13.10;99.90
736;DHT22;352;48.626;9.238;2023-05-16T06:28:24;13.10;99.90
736;DHT22;352;48.626;9.238;2023-05-16T06:30:52;13.10;99.90
736;DHT22;352;48.626;9.238;2023-05-16T06:33:19;13.10;99.90
736;DHT22;352;48.626;9.238;2023-05-16T06:35:46;13.20;99.90
736;DHT22;352;48.626;9.238;2023-05-16T06:38:13;13.20;99.90
736;DHT22;352;48.626;9.238;2023-05-16T06:40:40;13.20;99.90
736;DHT22;352;48.626;9.238;2023-05-16T06:43:07;13.20;99.90
736;DHT22;352;48.626;9.238;2023-05-16T06:45:33;13.30;99.90
736;DHT22;352;48.626;9.238;2023-05-16T06:48:02;13.30;99.90
736;DHT22;352;48.626;9.238;2023-05-16T06:50:30;13.20;99.90
736;DHT22;352;48.626;9.238;2023-05-16T06:52:56;13.20;99.90
736;DHT22;352;48.626;9.238;2023-05-16T06:55:23;13.20;99.90
736;DHT22;352;48.626;9.238;2023-05-16T06:57:50;13.10;99.90
736;DHT22;352;48.626;9.238;2023-05-16T07:00:18;13.10;99.90
736;DHT22;352;48.626;9.238;2023-05-16T07:02:45;13.10;99.90
736;DHT22;352;48.626;9.238;2023-05-16T07:05:13;13.10;99.90
736;DHT22;352;48.626;9.238;2023-05-16T07:07:39;13.20;99.90
736;DHT22;352;48.626;9.238;2023-05-16T07:10:07;13.20;99.90
736;DHT22;352;48.626;9.238;2023-05-16T07:12:34;13.20;99.90
736;DHT22;352;48.626;9.238;2023-05-16T07:15:02;13.20;99.90
736;DHT22;352;48.626;9.238;2023-05-16T07:17:28;13.20;99.90
736;DHT22;352;48.626;9.238;2023-05-16T07:19:55;13.30;99.90
736;DHT22;352;48.626;9.238;2023-05-16T07:22:23;13.30;99.90
736;DHT22;352;48.626;9.238;2023-05-16T07:24:50;13.30;99.90
736;DHT22;352;48.626;9.238;2023-05-16T07:27:18;13.30;99.90
736;DHT22;352;48.626;9.238;2023-05-16T07:29:46;13.30;99.90
736;DHT22;352;48.626;9.238;2023-05-16T07:32:13;13.20;99.90
736;DHT22;352;48.626;9.238;2023-05-16T07:34:40;13.20;99.90
736;DHT22;352;48.626;9.238;2023-05-16T07:37:07;13.20;99.90
736;DHT22;352;48.626;9.238;2023-05-16T07:39:38;13.20;99.90
736;DHT22;352;48.626;9.238;2023-05-16T07:42:06;13.20;99.90
736;DHT22;352;48.626;9.238;2023-05-16T07:44:32;13.20;99.90
736;DHT22;352;48.626;9.238;2023-05-16T07:46:59;13.20;99.90
736;DHT22;352;48.626;9.238;2023-05-16T07:49:26;13.10;99.90
736;DHT22;352;48.626;9.238;2023-05-16T07:51:52;13.10;99.90
736;DHT22;352;48.626;9.238;2023-05-16T07:54:19;13.10;99.90
736;DHT22;352;48.626;9.238;2023-05-16T07:56:47;13.10;99.90
736;DHT22;352;48.626;9.238;2023-05-16T07:59:14;13.00;99.90
736;DHT22;352;48.626;9.238;2023-05-16T08:01:41;13.10;99.90
736;DHT22;352;48.626;9.238;2023-05-16T08:04:07;13.10;99.90
736;DHT22;352;48.626;9.238;2023-05-16T08:06:34;13.10;99.90
736;DHT22;352;48.626;9.238;2023-05-16T08:09:01;13.10;99.90
736;DHT22;352;48.626;9.238;2023-05-16T08:11:28;13.20;99.90
736;DHT22;352;48.626;9.238;2023-05-16T08:13:56;13.30;99.90
736;DHT22;352;48.626;9.238;2023-05-16T08:16:23;13.40;99.90
736;DHT22;352;48.626;9.238;2023-05-16T08:18:50;13.50;99.90
736;DHT22;352;48.626;9.238;2023-05-16T08:21:16;13.50;99.90
736;DHT22;352;48.626;9.238;2023-05-16T08:23:43;13.50;99.90
736;DHT22;352;48.626;9.238;2023-05-16T08:26:10;13.50;99.90
736;DHT22;352;48.626;9.238;2023-05-16T08:28:37;13.40;99.90
736;DHT22;352;48.626;9.238;2023-05-16T08:31:05;13.50;99.90
736;DHT22;352;48.626;9.238;2023-05-16T08:33:31;13.50;99.90
736;DHT22;352;48.626;9.238;2023-05-16T08:35:59;13.50;99.90
736;DHT22;352;48.626;9.238;2023-05-16T08:38:26;13.40;99.90
736;DHT22;352;48.626;9.238;2023-05-16T08:40:53;13.40;99.90
736;DHT22;352;48.626;9.238;2023-05-16T08:43:20;13.40;99.90
736;DHT22;352;48.626;9.238;2023-05-16T08:45:47;13.30;99.90
736;DHT22;352;48.626;9.238;2023-05-16T08:48:15;13.30;99.90
736;DHT22;352;48.626;9.238;2023-05-16T08:50:43;13.30;99.90
736;DHT22;352;48.626;9.238;2023-05-16T08:53:11;13.30;99.90
736;DHT22;352;48.626;9.238;2023-05-16T08:55:40;13.20;99.90
736;DHT22;352;48.626;9.238;2023-05-16T08:58:08;13.20;99.90
736;DHT22;352;48.626;9.238;2023-05-16T09:00:35;13.20;99.90
736;DHT22;352;48.626;9.238;2023-05-16T09:03:01;13.30;99.90
736;DHT22;352;48.626;9.238;2023-05-16T09:05:30;13.30;99.90
736;DHT22;352;48.626;9.238;2023-05-16T09:07:57;13.40;99.90
736;DHT22;352;48.626;9.238;2023-05-16T09:10:24;13.40;99.90
736;DHT22;352;48.626;9.238;2023-05-16T09:12:51;13.50;99.90
736;DHT22;352;48.626;9.238;2023-05-16T09:15:19;13.60;99.90
736;DHT22;352;48.626;9.238;2023-05-16T09:17:46;13.70;99.90
736;DHT22;352;48.626;9.238;2023-05-16T09:20:15;13.50;99.90
736;DHT22;352;48.626;9.238;2023-05-16T09:22:51;13.60;99.90
736;DHT22;352;48.626;9.238;2023-05-16T09:25:18;13.50;99.90
736;DHT22;352;48.626;9.238;2023-05-16T09:27:45;13.40;99.90
736;DHT22;352;48.626;9.238;2023-05-16T09:30:13;13.30;99.90
736;DHT22;352;48.626;9.238;2023-05-16T09:32:42;13.30;99.90
736;DHT22;352;48.626;9.238;2023-05-16T09:35:13;13.20;99.90
736;DHT22;352;48.626;9.238;2023-05-16T09:37:43;13.10;99.90
736;DHT22;352;48.626;9.238;2023-05-16T09:40:13;13.10;99.90
736;DHT22;352;48.626;9.238;2023-05-16T09:42:41;13.00;99.90
736;DHT22;352;48.626;9.238;2023-05-16T09:45:11;13.00;99.90
736;DHT22;352;48.626;9.238;2023-05-16T09:47:39;13.00;99.90
736;DHT22;352;48.626;9.238;2023-05-16T09:50:12;13.00;99.90
736;DHT22;352;48.626;9.238;2023-05-16T09:52:39;13.00;99.90
736;DHT22;352;48.626;9.238;2023-05-16T09:55:06;13.10;99.90
736;DHT22;352;48.626;9.238;2023-05-16T09:57:37;13.10;99.90
736;DHT22;352;48.626;9.238;2023-05-16T10:00:06;13.10;99.90
736;DHT22;352;48.626;9.238;2023-05-16T10:02:35;13.10;99.90
736;DHT22;352;48.626;9.238;2023-05-16T10:05:02;13.10;99.90
736;DHT22;352;48.626;9.238;2023-05-16T10:07:30;13.10;99.90
736;DHT22;352;48.626;9.238;2023-05-16T10:09:59;13.00;99.90
736;DHT22;352;48.626;9.238;2023-05-16T10:12:29;13.00;99.90
736;DHT22;352;48.626;9.238;2023-05-16T10:15:00;13.00;99.90
736;DHT22;352;48.626;9.238;2023-05-16T10:17:27;13.00;99.90
736;DHT22;352;48.626;9.238;2023-05-16T10:19:57;13.00;99.90
736;DHT22;352;48.626;9.238;2023-05-16T10:22:24;13.10;99.90
736;DHT22;352;48.626;9.238;2023-05-16T10:24:56;13.10;99.90
736;DHT22;352;48.626;9.238;2023-05-16T10:27:24;13.20;99.90
736;DHT22;352;48.626;9.238;2023-05-16T10:29:52;13.10;99.90
736;DHT22;352;48.626;9.238;2023-05-16T10:32:22;13.10;99.90
736;DHT22;352;48.626;9.238;2023-05-16T10:34:49;13.10;99.90
736;DHT22;352;48.626;9.238;2023-05-16T10:37:16;13.10;99.90
736;DHT22;352;48.626;9.238;2023-05-16T10:39:43;13.10;99.90
736;DHT22;352;48.626;9.238;2023-05-16T10:42:11;13.10;99.90
736;DHT22;352;48.626;9.238;2023-05-16T10:44:38;13.10;99.90
736;DHT22;352;48.626;9.238;2023-05-16T10:47:05;13.10;99.90
736;DHT22;352;48.626;9.238;2023-05-16T10:49:33;13.00;99.90
736;DHT22;352;48.626;9.238;2023-05-16T10:52:05;13.00;99.90
736;DHT22;352;48.626;9.238;2023-05-16T10:54:36;13.00;99.90
736;DHT22;352;48.626;9.238;2023-05-16T10:57:05;13.00;99.90
736;DHT22;352;48.626;9.238;2023-05-16T10:59:40;13.00;99.90
736;DHT22;352;48.626;9.238;2023-05-16T11:02:21;13.00;99.90
736;DHT22;352;48.626;9.238;2023-05-16T11:04:51;13.00;99.90
736;DHT22;352;48.626;9.238;2023-05-16T11:07:19;13.00;99.90
736;DHT22;352;48.626;9.238;2023-05-16T11:10:01;13.00;99.90
736;DHT22;352;48.626;9.238;2023-05-16T11:12:36;13.00;99.90
736;DHT22;352;48.626;9.238;2023-05-16T11:15:17;13.00;99.90
736;DHT22;352;48.626;9.238;2023-05-16T11:17:44;13.10;99.90
736;DHT22;352;48.626;9.238;2023-05-16T11:20:26;13.10;99.90
736;DHT22;352;48.626;9.238;2023-05-16T11:23:20;13.20;99.90
736;DHT22;352;48.626;9.238;2023-05-16T11:25:50;13.20;99.90
736;DHT22;352;48.626;9.238;2023-05-16T11:28:18;13.20;99.90
736;DHT22;352;48.626;9.238;2023-05-16T11:30:47;13.20;99.90
736;DHT22;352;48.626;9.238;2023-05-16T11:33:14;13.10;99.90
736;DHT22;352;48.626;9.238;2023-05-16T11:35:43;13.10;99.90
736;DHT22;352;48.626;9.238;2023-05-16T11:38:13;13.10;99.90
736;DHT22;352;48.626;9.238;2023-05-16T11:40:42;13.10;99.90
736;DHT22;352;48.626;9.238;2023-05-16T11:43:10;13.10;99.90
736;DHT22;352;48.626;9.238;2023-05-16T11:45:37;13.10;99.90
736;DHT22;352;48.626;9.238;2023-05-16T11:48:04;13.10;99.90
736;DHT22;352;48.626;9.238;2023-05-16T11:50:33;13.10;99.90
736;DHT22;352;48.626;9.238;2023-05-16T11:53:01;13.20;99.90
736;DHT22;352;48.626;9.238;2023-05-16T11:55:29;13.20;99.90
736;DHT22;352;48.626;9.238;2023-05-16T11:57:57;13.20;99.90
736;DHT22;352;48.626;9.238;2023-05-16T12:00:25;13.30;99.90
736;DHT22;352;48.626;9.238;2023-05-16T12:02:53;13.20;99.90
736;DHT22;352;48.626;9.238;2023-05-16T12:05:20;13.20;99.90
736;DHT22;352;48.626;9.238;2023-05-16T12:07:50;13.20;99.90
736;DHT22;352;48.626;9.238;2023-05-16T12:10:20;13.20;99.90
736;DHT22;352;48.626;9.238;2023-05-16T12:12:48;13.30;99.90
736;DHT22;352;48.626;9.238;2023-05-16T12:15:16;13.40;99.90
736;DHT22;352;48.626;9.238;2023-05-16T12:17:44;13.30;99.90
736;DHT22;352;48.626;9.238;2023-05-16T12:20:11;13.10;99.90
736;DHT22;352;48.626;9.238;2023-05-16T12:22:40;13.00;99.90
736;DHT22;352;48.626;9.238;2023-05-16T12:25:25;13.10;99.90
736;DHT22;352;48.626;9.238;2023-05-16T12:27:52;13.20;99.90
736;DHT22;352;48.626;9.238;2023-05-16T12:30:21;13.30;99.90
736;DHT22;352;48.626;9.238;2023-05-16T12:32:52;13.30;99.90
736;DHT22;352;48.626;9.238;2023-05-16T12:35:19;13.40;99.90
736;DHT22;352;48.626;9.238;2023-05-16T12:37:46;13.40;99.90
736;DHT22;352;48.626;9.238;2023-05-16T12:40:12;13.40;99.90
736;DHT22;352;48.626;9.238;2023-05-16T12:42:42;13.40;99.90
736;DHT22;352;48.626;9.238;2023-05-16T12:45:14;13.50;99.90
736;DHT22;352;48.626;9.238;2023-05-16T12:47:41;13.50;99.90
736;DHT22;352;48.626;9.238;2023-05-16T12:50:09;13.60;99.90
736;DHT22;352;48.626;9.238;2023-05-16T12:52:45;13.60;99.90
736;DHT22;352;48.626;9.238;2023-05-16T12:55:12;13.60;99.90
736;DHT22;352;48.626;9.238;2023-05-16T12:57:42;13.30;99.90
736;DHT22;352;48.626;9.238;2023-05-16T13:00:10;13.10;99.90
736;DHT22;352;48.626;9.238;2023-05-16T13:02:37;13.10;99.90
736;DHT22;352;48.626;9.238;2023-05-16T13:05:04;13.00;99.90
736;DHT22;352;48.626;9.238;2023-05-16T13:07:32;13.00;99.90
736;DHT22;352;48.626;9.238;2023-05-16T13:09:59;12.90;99.90
736;DHT22;352;48.626;9.238;2023-05-16T13:12:25;12.90;99.90
736;DHT22;352;48.626;9.238;2023-05-16T13:14:54;12.90;99.90
736;DHT22;352;48.626;9.238;2023-05-16T13:17:21;12.90;99.90
736;DHT22;352;48.626;9.238;2023-05-16T13:19:48;13.00;99.90
736;DHT22;352;48.626;9.238;2023-05-16T13:22:14;13.00;99.90
736;DHT22;352;48.626;9.238;2023-05-16T13:24:41;13.00;99.90
736;DHT22;352;48.626;9.238;2023-05-16T13:27:08;13.10;99.90
736;DHT22;352;48.626;9.238;2023-05-16T13:29:34;13.10;99.90
736;DHT22;352;48.626;9.238;2023-05-16T13:32:03;13.20;99.90
736;DHT22;352;48.626;9.238;2023-05-16T13:34:30;13.20;99.90
736;DHT22;352;48.626;9.238;2023-05-16T13:36:58;13.20;99.90
736;DHT22;352;48.626;9.238;2023-05-16T13:39:24;13.20;99.90
736;DHT22;352;48.626;9.238;2023-05-16T13:41:51;13.20;99.90
736;DHT22;352;48.626;9.238;2023-05-16T13:44:18;13.30;99.90
736;DHT22;352;48.626;9.238;2023-05-16T13:46:46;13.30;99.90
736;DHT22;352;48.626;9.238;2023-05-16T13:49:14;13.40;99.90
736;DHT22;352;48.626;9.238;2023-05-16T13:51:41;13.50;99.90
736;DHT22;352;48.626;9.238;2023-05-16T13:54:08;13.60;99.90
736;DHT22;352;48.626;9.238;2023-05-16T13:56:35;13.60;99.90
736;DHT22;352;48.626;9.238;2023-05-16T13:59:02;13.80;99.90
736;DHT22;352;48.626;9.238;2023-05-16T14:01:29;13.80;99.90
736;DHT22;352;48.626;9.238;2023-05-16T14:03:55;13.90;99.90
736;DHT22;352;48.626;9.238;2023-05-16T14:06:24;14.00;99.90
736;DHT22;352;48.626;9.238;2023-05-16T14:08:50;14.00;99.90
736;DHT22;352;48.626;9.238;2023-05-16T14:11:17;14.00;99.90
736;DHT22;352;48.626;9.238;2023-05-16T14:13:47;14.10;99.90
736;DHT22;352;48.626;9.238;2023-05-16T14:16:14;14.20;99.90
736;DHT22;352;48.626;9.238;2023-05-16T14:18:41;14.20;99.90
736;DHT22;352;48.626;9.238;2023-05-16T14:21:08;14.20;99.90
736;DHT22;352;48.626;9.238;2023-05-16T14:23:36;14.20;99.90
736;DHT22;352;48.626;9.238;2023-05-16T14:26:03;14.20;99.90
736;DHT22;352;48.626;9.238;2023-05-16T14:28:30;14.20;99.90
736;DHT22;352;48.626;9.238;2023-05-16T14:30:57;14.20;99.90
736;DHT22;352;48.626;9.238;2023-05-16T14:33:23;14.20;99.90
736;DHT22;352;48.626;9.238;2023-05-16T14:35:50;14.10;99.90
736;DHT22;352;48.626;9.238;2023-05-16T14:38:17;14.20;99.90
736;DHT22;352;48.626;9.238;2023-05-16T14:40:45;14.00;99.90
736;DHT22;352;48.626;9.238;2023-05-16T14:43:12;13.70;99.90
736;DHT22;352;48.626;9.238;2023-05-16T14:45:39;13.70;99.90
736;DHT22;352;48.626;9.238;2023-05-16T14:48:06;13.60;99.90
736;DHT22;352;48.626;9.238;2023-05-16T14:50:33;13.50;99.90
736;DHT22;352;48.626;9.238;2023-05-16T14:53:00;13.40;99.90
736;DHT22;352;48.626;9.238;2023-05-16T14:55:27;13.50;99.90
736;DHT22;352;48.626;9.238;2023-05-16T14:57:55;13.50;99.90
736;DHT22;352;48.626;9.238;2023-05-16T15:00:23;13.40;99.90
736;DHT22;352;48.626;9.238;2023-05-16T15:02:51;13.30;99.90
736;DHT22;352;48.626;9.238;2023-05-16T15:05:18;13.20;99.90
736;DHT22;352;48.626;9.238;2023-05-16T15:07:44;13.10;99.90
736;DHT22;352;48.626;9.238;2023-05-16T15:10:11;13.10;99.90
736;DHT22;352;48.626;9.238;2023-05-16T15:12:38;13.10;99.90
736;DHT22;352;48.626;9.238;2023-05-16T15:15:08;13.10;99.90
736;DHT22;352;48.626;9.238;2023-05-16T15:17:36;13.30;99.90
736;DHT22;352;48.626;9.238;2023-05-16T15:20:04;13.30;99.90
736;DHT22;352;48.626;9.238;2023-05-16T15:22:31;13.30;99.90
736;DHT22;352;48.626;9.238;2023-05-16T15:24:58;13.30;99.90
736;DHT22;352;48.626;9.238;2023-05-16T15:27:24;13.30;99.90
736;DHT22;352;48.626;9.238;2023-05-16T15:29:51;13.30;99.90
736;DHT22;352;48.626;9.238;2023-05-16T15:32:19;13.30;99.90
736;DHT22;352;48.626;9.238;2023-05-16T15:34:46;13.30;99.90
736;DHT22;352;48.626;9.238;2023-05-16T15:37:13;13.30;99.90
736;DHT22;352;48.626;9.238;2023-05-16T15:39:40;13.40;99.90
736;DHT22;352;48.626;9.238;2023-05-16T15:42:07;13.30;99.90
736;DHT22;352;48.626;9.238;2023-05-16T15:44:33;13.30;99.90
736;DHT22;352;48.626;9.238;2023-05-16T15:47:00;13.30;99.90
736;DHT22;352;48.626;9.238;2023-05-16T15:49:28;13.40;99.90
736;DHT22;352;48.626;9.238;2023-05-16T15:51:55;13.30;99.90
736;DHT22;352;48.626;9.238;2023-05-16T15:54:22;13.30;99.90
736;DHT22;352;48.626;9.238;2023-05-16T15:56:49;13.20;99.90
736;DHT22;352;48.626;9.238;2023-05-16T15:59:15;13.20;99.90
736;DHT22;352;48.626;9.238;2023-05-16T16:01:42;13.20;99.90
736;DHT22;352;48.626;9.238;2023-05-16T16:04:09;13.20;99.90
736;DHT22;352;48.626;9.238;2023-05-16T16:06:37;13.30;99.90
736;DHT22;352;48.626;9.238;2023-05-16T16:09:04;13.30;99.90
736;DHT22;352;48.626;9.238;2023-05-16T16:11:30;13.40;99.90
736;DHT22;352;48.626;9.238;2023-05-16T16:13:57;13.50;99.90
736;DHT22;352;48.626;9.238;2023-05-16T16:16:24;13.50;99.90
736;DHT22;352;48.626;9.238;2023-05-16T16:18:52;13.50;99.90
736;DHT22;352;48.626;9.238;2023-05-16T16:21:18;13.60;99.90
736;DHT22;352;48.626;9.238;2023-05-16T16:23:47;13.60;99.90
736;DHT22;352;48.626;9.238;2023-05-16T16:26:13;13.60;99.90
736;DHT22;352;48.626;9.238;2023-05-16T16:28:40;13.60;99.90
736;DHT22;352;48.626;9.238;2023-05-16T16:31:07;13.50;99.90
736;DHT22;352;48.626;9.238;2023-05-16T16:33:34;13.50;99.90
736;DHT22;352;48.626;9.238;2023-05-16T16:36:01;13.60;99.90
736;DHT22;352;48.626;9.238;2023-05-16T16:38:27;13.60;99.90